Happy Valley, Nevada
Current Conditions -  °F | °C
As of 4:55 PM on Sunday 23 Nov 2014 (Local Time) from KRNO Reporting Station
Overcast Overcast  
Wind Chill:   Ceiling: 11000
Heat Index:   Visibility: 10mi
Dew Point: -4°   Wind: 3mph
Humidity: 44%   Direction: 20°NNE
Pressure: 30.3"   Gusts: NA
Location:  39.5386°N, 119.749°W
Report Text: KRNO 240055Z 02003KT 10SM BKN110 BKN140 OVC180 07/M04 A3030 RMK AO2 SLP263 ACSL DSNT S-W T00721044
Loading
Personal Weather Stations






























Interactive Weather Map New forecast layout! Learn more

10-Day Weather Forecast

Advertisements
Track Severe Weather on mobile